sensor_id;sensor_type;location;lat;lon;timestamp;P1;durP1;ratioP1;P2;durP2;ratioP2
47113;SDS011;32867;51.556;6.832;2024-03-29T00:01:11;4.80;;;1.42;;
47113;SDS011;32867;51.556;6.832;2024-03-29T00:06:12;4.78;;;1.75;;
47113;SDS011;32867;51.556;6.832;2024-03-29T00:11:12;3.20;;;1.35;;
47113;SDS011;32867;51.556;6.832;2024-03-29T00:16:13;6.22;;;1.20;;
47113;SDS011;32867;51.556;6.832;2024-03-29T00:21:14;3.65;;;1.20;;
47113;SDS011;32867;51.556;6.832;2024-03-29T00:26:14;2.75;;;1.13;;
47113;SDS011;32867;51.556;6.832;2024-03-29T00:31:15;6.70;;;1.25;;
47113;SDS011;32867;51.556;6.832;2024-03-29T00:36:15;3.55;;;1.05;;
47113;SDS011;32867;51.556;6.832;2024-03-29T00:41:16;3.65;;;1.20;;
47113;SDS011;32867;51.556;6.832;2024-03-29T00:46:17;2.55;;;1.23;;
47113;SDS011;32867;51.556;6.832;2024-03-29T00:51:18;3.85;;;1.30;;
47113;SDS011;32867;51.556;6.832;2024-03-29T00:56:19;3.20;;;1.00;;
47113;SDS011;32867;51.556;6.832;2024-03-29T01:01:19;4.72;;;1.10;;
47113;SDS011;32867;51.556;6.832;2024-03-29T01:06:20;3.22;;;1.10;;
47113;SDS011;32867;51.556;6.832;2024-03-29T01:11:21;4.38;;;1.00;;
47113;SDS011;32867;51.556;6.832;2024-03-29T01:16:21;4.93;;;1.38;;
47113;SDS011;32867;51.556;6.832;2024-03-29T01:21:22;3.85;;;1.60;;
47113;SDS011;32867;51.556;6.832;2024-03-29T01:26:23;3.42;;;1.27;;
47113;SDS011;32867;51.556;6.832;2024-03-29T01:31:23;5.18;;;1.20;;
47113;SDS011;32867;51.556;6.832;2024-03-29T01:36:24;3.63;;;1.13;;
47113;SDS011;32867;51.556;6.832;2024-03-29T01:41:25;3.58;;;1.50;;
47113;SDS011;32867;51.556;6.832;2024-03-29T01:46:27;3.55;;;1.10;;
47113;SDS011;32867;51.556;6.832;2024-03-29T01:51:28;5.70;;;1.48;;
47113;SDS011;32867;51.556;6.832;2024-03-29T01:56:29;3.88;;;1.10;;
47113;SDS011;32867;51.556;6.832;2024-03-29T02:01:30;3.78;;;1.02;;
47113;SDS011;32867;51.556;6.832;2024-03-29T02:06:30;4.97;;;1.17;;
47113;SDS011;32867;51.556;6.832;2024-03-29T02:11:33;5.22;;;1.20;;
47113;SDS011;32867;51.556;6.832;2024-03-29T02:16:34;2.78;;;1.25;;
47113;SDS011;32867;51.556;6.832;2024-03-29T02:21:36;4.28;;;1.20;;
47113;SDS011;32867;51.556;6.832;2024-03-29T02:26:40;3.85;;;1.00;;
47113;SDS011;32867;51.556;6.832;2024-03-29T02:31:42;3.00;;;1.00;;
47113;SDS011;32867;51.556;6.832;2024-03-29T02:36:42;2.80;;;1.00;;
47113;SDS011;32867;51.556;6.832;2024-03-29T02:41:43;6.18;;;1.27;;
47113;SDS011;32867;51.556;6.832;2024-03-29T02:46:44;3.45;;;1.23;;
47113;SDS011;32867;51.556;6.832;2024-03-29T02:51:45;4.28;;;1.00;;
47113;SDS011;32867;51.556;6.832;2024-03-29T02:56:45;3.58;;;1.35;;
47113;SDS011;32867;51.556;6.832;2024-03-29T03:01:46;4.40;;;1.10;;
47113;SDS011;32867;51.556;6.832;2024-03-29T03:06:46;2.40;;;1.00;;
47113;SDS011;32867;51.556;6.832;2024-03-29T03:11:47;5.25;;;1.10;;
47113;SDS011;32867;51.556;6.832;2024-03-29T03:16:48;2.80;;;1.02;;
47113;SDS011;32867;51.556;6.832;2024-03-29T03:21:50;2.47;;;1.10;;
47113;SDS011;32867;51.556;6.832;2024-03-29T03:26:50;3.13;;;1.00;;
47113;SDS011;32867;51.556;6.832;2024-03-29T03:31:51;3.30;;;1.20;;
47113;SDS011;32867;51.556;6.832;2024-03-29T03:36:52;3.65;;;1.00;;
47113;SDS011;32867;51.556;6.832;2024-03-29T03:41:52;2.33;;;0.90;;
47113;SDS011;32867;51.556;6.832;2024-03-29T03:46:53;2.83;;;1.00;;
47113;SDS011;32867;51.556;6.832;2024-03-29T03:51:53;3.90;;;0.88;;
47113;SDS011;32867;51.556;6.832;2024-03-29T03:56:54;2.75;;;0.90;;
47113;SDS011;32867;51.556;6.832;2024-03-29T04:01:55;2.25;;;0.90;;
47113;SDS011;32867;51.556;6.832;2024-03-29T04:06:55;4.05;;;1.20;;
47113;SDS011;32867;51.556;6.832;2024-03-29T04:11:56;2.25;;;0.90;;
47113;SDS011;32867;51.556;6.832;2024-03-29T04:16:57;2.45;;;1.30;;
47113;SDS011;32867;51.556;6.832;2024-03-29T04:21:57;5.55;;;1.75;;
47113;SDS011;32867;51.556;6.832;2024-03-29T04:26:58;4.72;;;1.40;;
47113;SDS011;32867;51.556;6.832;2024-03-29T04:31:59;2.55;;;1.30;;
47113;SDS011;32867;51.556;6.832;2024-03-29T04:36:59;3.15;;;1.20;;
47113;SDS011;32867;51.556;6.832;2024-03-29T04:42:00;3.38;;;1.10;;
47113;SDS011;32867;51.556;6.832;2024-03-29T04:47:01;2.95;;;1.27;;
47113;SDS011;32867;51.556;6.832;2024-03-29T04:52:03;2.92;;;1.15;;
47113;SDS011;32867;51.556;6.832;2024-03-29T04:57:04;5.32;;;1.30;;
47113;SDS011;32867;51.556;6.832;2024-03-29T05:02:08;2.33;;;1.10;;
47113;SDS011;32867;51.556;6.832;2024-03-29T05:07:09;3.55;;;1.60;;
47113;SDS011;32867;51.556;6.832;2024-03-29T05:12:09;3.75;;;1.30;;
47113;SDS011;32867;51.556;6.832;2024-03-29T05:17:10;5.90;;;1.98;;
47113;SDS011;32867;51.556;6.832;2024-03-29T05:22:11;2.50;;;1.00;;
47113;SDS011;32867;51.556;6.832;2024-03-29T05:27:12;4.20;;;1.40;;
47113;SDS011;32867;51.556;6.832;2024-03-29T05:32:12;4.07;;;1.45;;
47113;SDS011;32867;51.556;6.832;2024-03-29T05:37:13;3.53;;;1.30;;
47113;SDS011;32867;51.556;6.832;2024-03-29T05:42:16;2.95;;;1.10;;
47113;SDS011;32867;51.556;6.832;2024-03-29T05:47:17;1.65;;;1.00;;
47113;SDS011;32867;51.556;6.832;2024-03-29T05:52:17;2.75;;;1.13;;
47113;SDS011;32867;51.556;6.832;2024-03-29T05:57:18;3.33;;;1.15;;
47113;SDS011;32867;51.556;6.832;2024-03-29T06:02:19;1.65;;;0.90;;
47113;SDS011;32867;51.556;6.832;2024-03-29T06:07:20;1.70;;;0.90;;
47113;SDS011;32867;51.556;6.832;2024-03-29T06:12:20;1.90;;;0.90;;
47113;SDS011;32867;51.556;6.832;2024-03-29T06:17:21;2.20;;;1.10;;
47113;SDS011;32867;51.556;6.832;2024-03-29T06:22:24;2.22;;;0.95;;
47113;SDS011;32867;51.556;6.832;2024-03-29T06:27:29;3.17;;;1.23;;
47113;SDS011;32867;51.556;6.832;2024-03-29T06:32:33;2.15;;;1.10;;
47113;SDS011;32867;51.556;6.832;2024-03-29T06:37:34;4.70;;;1.20;;
47113;SDS011;32867;51.556;6.832;2024-03-29T06:42:34;4.65;;;1.90;;
47113;SDS011;32867;51.556;6.832;2024-03-29T06:47:35;2.72;;;1.30;;
47113;SDS011;32867;51.556;6.832;2024-03-29T06:52:36;3.92;;;1.40;;
47113;SDS011;32867;51.556;6.832;2024-03-29T06:57:36;5.03;;;1.80;;
47113;SDS011;32867;51.556;6.832;2024-03-29T07:02:37;4.72;;;1.50;;
47113;SDS011;32867;51.556;6.832;2024-03-29T07:07:38;4.10;;;1.55;;
47113;SDS011;32867;51.556;6.832;2024-03-29T07:12:40;5.55;;;1.90;;
47113;SDS011;32867;51.556;6.832;2024-03-29T07:17:40;4.18;;;1.55;;
47113;SDS011;32867;51.556;6.832;2024-03-29T07:22:43;3.22;;;1.48;;
47113;SDS011;32867;51.556;6.832;2024-03-29T07:27:45;5.80;;;2.00;;
47113;SDS011;32867;51.556;6.832;2024-03-29T07:32:46;3.42;;;1.30;;
47113;SDS011;32867;51.556;6.832;2024-03-29T07:37:47;5.82;;;1.80;;
47113;SDS011;32867;51.556;6.832;2024-03-29T07:42:49;6.18;;;1.60;;
47113;SDS011;32867;51.556;6.832;2024-03-29T07:47:50;3.97;;;1.30;;
47113;SDS011;32867;51.556;6.832;2024-03-29T07:52:52;5.45;;;1.50;;
47113;SDS011;32867;51.556;6.832;2024-03-29T07:57:53;3.97;;;1.27;;
47113;SDS011;32867;51.556;6.832;2024-03-29T08:02:54;3.70;;;1.50;;
47113;SDS011;32867;51.556;6.832;2024-03-29T08:07:54;4.75;;;1.70;;
47113;SDS011;32867;51.556;6.832;2024-03-29T08:12:55;4.03;;;1.70;;
47113;SDS011;32867;51.556;6.832;2024-03-29T08:17:55;3.80;;;1.60;;
47113;SDS011;32867;51.556;6.832;2024-03-29T08:22:57;7.35;;;1.55;;
47113;SDS011;32867;51.556;6.832;2024-03-29T08:27:59;3.55;;;1.33;;
47113;SDS011;32867;51.556;6.832;2024-03-29T08:33:03;6.40;;;2.15;;
47113;SDS011;32867;51.556;6.832;2024-03-29T08:38:04;6.13;;;1.55;;
47113;SDS011;32867;51.556;6.832;2024-03-29T08:43:05;4.18;;;1.77;;
47113;SDS011;32867;51.556;6.832;2024-03-29T08:48:09;5.38;;;1.70;;
47113;SDS011;32867;51.556;6.832;2024-03-29T08:53:09;3.97;;;1.80;;
47113;SDS011;32867;51.556;6.832;2024-03-29T08:58:10;5.25;;;1.85;;
47113;SDS011;32867;51.556;6.832;2024-03-29T09:03:11;6.38;;;1.88;;
47113;SDS011;32867;51.556;6.832;2024-03-29T09:08:11;6.00;;;2.30;;
47113;SDS011;32867;51.556;6.832;2024-03-29T09:13:12;4.97;;;1.80;;
47113;SDS011;32867;51.556;6.832;2024-03-29T09:18:13;6.25;;;1.90;;
47113;SDS011;32867;51.556;6.832;2024-03-29T09:23:19;5.65;;;2.70;;
47113;SDS011;32867;51.556;6.832;2024-03-29T09:28:23;6.50;;;2.88;;
47113;SDS011;32867;51.556;6.832;2024-03-29T09:33:24;4.70;;;2.10;;
47113;SDS011;32867;51.556;6.832;2024-03-29T09:38:25;5.97;;;2.13;;
47113;SDS011;32867;51.556;6.832;2024-03-29T09:43:26;3.60;;;2.00;;
47113;SDS011;32867;51.556;6.832;2024-03-29T09:48:28;4.22;;;1.80;;
47113;SDS011;32867;51.556;6.832;2024-03-29T09:53:36;3.30;;;1.80;;
47113;SDS011;32867;51.556;6.832;2024-03-29T09:58:37;3.78;;;1.80;;
47113;SDS011;32867;51.556;6.832;2024-03-29T10:03:40;6.68;;;1.90;;
47113;SDS011;32867;51.556;6.832;2024-03-29T10:08:42;5.53;;;2.20;;
47113;SDS011;32867;51.556;6.832;2024-03-29T10:13:42;4.10;;;1.80;;
47113;SDS011;32867;51.556;6.832;2024-03-29T10:18:46;4.15;;;1.98;;
47113;SDS011;32867;51.556;6.832;2024-03-29T10:23:48;5.72;;;1.98;;
47113;SDS011;32867;51.556;6.832;2024-03-29T10:28:48;4.03;;;1.90;;
47113;SDS011;32867;51.556;6.832;2024-03-29T10:33:49;4.68;;;2.13;;
47113;SDS011;32867;51.556;6.832;2024-03-29T10:38:52;4.97;;;2.08;;
47113;SDS011;32867;51.556;6.832;2024-03-29T10:43:53;5.35;;;2.38;;
47113;SDS011;32867;51.556;6.832;2024-03-29T10:48:56;3.95;;;2.25;;
47113;SDS011;32867;51.556;6.832;2024-03-29T10:53:58;4.65;;;1.90;;
47113;SDS011;32867;51.556;6.832;2024-03-29T11:04:29;4.00;;;1.98;;
47113;SDS011;32867;51.556;6.832;2024-03-29T11:09:36;5.00;;;2.30;;
47113;SDS011;32867;51.556;6.832;2024-03-29T11:14:42;4.68;;;2.03;;
47113;SDS011;32867;51.556;6.832;2024-03-29T11:19:46;5.63;;;2.47;;
47113;SDS011;32867;51.556;6.832;2024-03-29T11:24:50;6.75;;;2.33;;
47113;SDS011;32867;51.556;6.832;2024-03-29T11:29:51;5.28;;;2.50;;
47113;SDS011;32867;51.556;6.832;2024-03-29T11:34:52;4.03;;;2.15;;
47113;SDS011;32867;51.556;6.832;2024-03-29T11:39:55;5.25;;;2.15;;
47113;SDS011;32867;51.556;6.832;2024-03-29T11:44:55;7.40;;;2.58;;
47113;SDS011;32867;51.556;6.832;2024-03-29T11:49:56;3.97;;;2.00;;
47113;SDS011;32867;51.556;6.832;2024-03-29T11:54:58;6.07;;;2.38;;
47113;SDS011;32867;51.556;6.832;2024-03-29T11:59:59;5.28;;;2.10;;
47113;SDS011;32867;51.556;6.832;2024-03-29T12:05:00;4.03;;;1.80;;
47113;SDS011;32867;51.556;6.832;2024-03-29T12:10:00;4.75;;;1.80;;
47113;SDS011;32867;51.556;6.832;2024-03-29T12:15:01;3.83;;;1.35;;
47113;SDS011;32867;51.556;6.832;2024-03-29T12:20:02;3.80;;;1.65;;
47113;SDS011;32867;51.556;6.832;2024-03-29T12:25:05;5.25;;;1.98;;
47113;SDS011;32867;51.556;6.832;2024-03-29T12:30:06;3.95;;;1.73;;
47113;SDS011;32867;51.556;6.832;2024-03-29T12:35:08;2.05;;;1.20;;
47113;SDS011;32867;51.556;6.832;2024-03-29T12:40:12;4.80;;;1.80;;
47113;SDS011;32867;51.556;6.832;2024-03-29T12:45:18;2.95;;;1.27;;
47113;SDS011;32867;51.556;6.832;2024-03-29T12:50:30;3.28;;;1.10;;
47113;SDS011;32867;51.556;6.832;2024-03-29T12:55:33;1.77;;;1.00;;
47113;SDS011;32867;51.556;6.832;2024-03-29T13:00:39;2.93;;;0.90;;
47113;SDS011;32867;51.556;6.832;2024-03-29T13:05:40;3.20;;;0.93;;
47113;SDS011;32867;51.556;6.832;2024-03-29T13:10:41;1.58;;;0.80;;
47113;SDS011;32867;51.556;6.832;2024-03-29T13:15:43;2.35;;;1.20;;
47113;SDS011;32867;51.556;6.832;2024-03-29T13:20:47;6.20;;;1.50;;
47113;SDS011;32867;51.556;6.832;2024-03-29T13:25:47;1.75;;;0.95;;
47113;SDS011;32867;51.556;6.832;2024-03-29T13:30:48;4.07;;;1.10;;
47113;SDS011;32867;51.556;6.832;2024-03-29T13:35:52;3.92;;;1.45;;
47113;SDS011;32867;51.556;6.832;2024-03-29T13:40:54;4.28;;;1.20;;
47113;SDS011;32867;51.556;6.832;2024-03-29T13:45:56;2.33;;;0.90;;
47113;SDS011;32867;51.556;6.832;2024-03-29T13:50:59;3.75;;;1.08;;
47113;SDS011;32867;51.556;6.832;2024-03-29T13:55:59;3.20;;;1.60;;
47113;SDS011;32867;51.556;6.832;2024-03-29T14:01:00;2.40;;;0.93;;
47113;SDS011;32867;51.556;6.832;2024-03-29T14:06:02;2.78;;;1.08;;
47113;SDS011;32867;51.556;6.832;2024-03-29T14:11:04;2.88;;;0.90;;
47113;SDS011;32867;51.556;6.832;2024-03-29T14:16:05;3.10;;;0.90;;
47113;SDS011;32867;51.556;6.832;2024-03-29T14:21:06;2.88;;;1.13;;
47113;SDS011;32867;51.556;6.832;2024-03-29T14:26:07;2.72;;;1.25;;
47113;SDS011;32867;51.556;6.832;2024-03-29T14:31:07;3.10;;;1.10;;
47113;SDS011;32867;51.556;6.832;2024-03-29T14:36:08;2.83;;;1.17;;
47113;SDS011;32867;51.556;6.832;2024-03-29T14:41:09;3.95;;;0.80;;
47113;SDS011;32867;51.556;6.832;2024-03-29T14:46:09;3.25;;;1.25;;
47113;SDS011;32867;51.556;6.832;2024-03-29T14:51:10;4.15;;;1.42;;
47113;SDS011;32867;51.556;6.832;2024-03-29T14:56:10;2.58;;;1.48;;
47113;SDS011;32867;51.556;6.832;2024-03-29T15:01:11;3.72;;;1.40;;
47113;SDS011;32867;51.556;6.832;2024-03-29T15:06:12;3.13;;;0.88;;
47113;SDS011;32867;51.556;6.832;2024-03-29T15:11:12;1.65;;;0.88;;
47113;SDS011;32867;51.556;6.832;2024-03-29T15:16:13;3.47;;;1.23;;
47113;SDS011;32867;51.556;6.832;2024-03-29T15:21:14;1.90;;;0.80;;
47113;SDS011;32867;51.556;6.832;2024-03-29T15:26:14;2.05;;;1.00;;
47113;SDS011;32867;51.556;6.832;2024-03-29T15:31:16;2.72;;;1.17;;
47113;SDS011;32867;51.556;6.832;2024-03-29T15:36:21;2.97;;;1.02;;
47113;SDS011;32867;51.556;6.832;2024-03-29T15:41:22;3.22;;;1.10;;
47113;SDS011;32867;51.556;6.832;2024-03-29T15:46:23;3.13;;;1.10;;
47113;SDS011;32867;51.556;6.832;2024-03-29T15:51:23;1.88;;;0.95;;
47113;SDS011;32867;51.556;6.832;2024-03-29T15:56:24;2.15;;;1.10;;
47113;SDS011;32867;51.556;6.832;2024-03-29T16:01:26;1.30;;;0.90;;
47113;SDS011;32867;51.556;6.832;2024-03-29T16:06:26;1.55;;;1.05;;
47113;SDS011;32867;51.556;6.832;2024-03-29T16:11:36;2.92;;;1.20;;
47113;SDS011;32867;51.556;6.832;2024-03-29T16:16:38;3.35;;;1.40;;
47113;SDS011;32867;51.556;6.832;2024-03-29T16:21:38;3.13;;;1.52;;
47113;SDS011;32867;51.556;6.832;2024-03-29T16:26:39;1.48;;;0.90;;
47113;SDS011;32867;51.556;6.832;2024-03-29T16:31:40;5.75;;;0.85;;
47113;SDS011;32867;51.556;6.832;2024-03-29T16:36:40;2.90;;;1.40;;
47113;SDS011;32867;51.556;6.832;2024-03-29T16:41:42;1.92;;;1.00;;
47113;SDS011;32867;51.556;6.832;2024-03-29T16:46:46;2.13;;;1.30;;
47113;SDS011;32867;51.556;6.832;2024-03-29T16:51:46;2.40;;;0.90;;
47113;SDS011;32867;51.556;6.832;2024-03-29T16:56:47;2.33;;;0.80;;
47113;SDS011;32867;51.556;6.832;2024-03-29T17:01:48;4.45;;;2.28;;
47113;SDS011;32867;51.556;6.832;2024-03-29T17:06:48;1.55;;;0.80;;
47113;SDS011;32867;51.556;6.832;2024-03-29T17:11:49;2.45;;;1.20;;
47113;SDS011;32867;51.556;6.832;2024-03-29T17:16:49;3.95;;;1.70;;
47113;SDS011;32867;51.556;6.832;2024-03-29T17:21:51;2.67;;;1.55;;
47113;SDS011;32867;51.556;6.832;2024-03-29T17:26:51;1.13;;;0.80;;
47113;SDS011;32867;51.556;6.832;2024-03-29T17:31:55;1.17;;;0.82;;
47113;SDS011;32867;51.556;6.832;2024-03-29T17:36:56;2.67;;;0.95;;
47113;SDS011;32867;51.556;6.832;2024-03-29T17:41:56;2.42;;;0.90;;
47113;SDS011;32867;51.556;6.832;2024-03-29T17:46:57;2.08;;;0.98;;
47113;SDS011;32867;51.556;6.832;2024-03-29T17:51:58;2.35;;;1.10;;
47113;SDS011;32867;51.556;6.832;2024-03-29T17:56:58;2.95;;;1.20;;
47113;SDS011;32867;51.556;6.832;2024-03-29T18:01:59;3.33;;;1.10;;
47113;SDS011;32867;51.556;6.832;2024-03-29T18:06:59;1.95;;;1.10;;
47113;SDS011;32867;51.556;6.832;2024-03-29T18:12:00;2.92;;;1.10;;
47113;SDS011;32867;51.556;6.832;2024-03-29T18:17:01;2.15;;;1.02;;
47113;SDS011;32867;51.556;6.832;2024-03-29T18:22:01;1.67;;;0.95;;
47113;SDS011;32867;51.556;6.832;2024-03-29T18:27:02;3.30;;;1.30;;
47113;SDS011;32867;51.556;6.832;2024-03-29T18:32:03;2.83;;;1.20;;
47113;SDS011;32867;51.556;6.832;2024-03-29T18:37:04;2.42;;;1.13;;
47113;SDS011;32867;51.556;6.832;2024-03-29T18:42:04;3.28;;;1.00;;
47113;SDS011;32867;51.556;6.832;2024-03-29T18:47:05;2.15;;;1.02;;
47113;SDS011;32867;51.556;6.832;2024-03-29T18:52:06;1.75;;;1.17;;
47113;SDS011;32867;51.556;6.832;2024-03-29T18:57:07;4.10;;;1.40;;
47113;SDS011;32867;51.556;6.832;2024-03-29T19:02:08;2.35;;;1.00;;
47113;SDS011;32867;51.556;6.832;2024-03-29T19:07:08;3.13;;;1.25;;
47113;SDS011;32867;51.556;6.832;2024-03-29T19:12:09;3.20;;;1.40;;
47113;SDS011;32867;51.556;6.832;2024-03-29T19:17:10;4.10;;;1.20;;
47113;SDS011;32867;51.556;6.832;2024-03-29T19:22:11;3.47;;;1.40;;
47113;SDS011;32867;51.556;6.832;2024-03-29T19:27:12;2.78;;;1.20;;
47113;SDS011;32867;51.556;6.832;2024-03-29T19:32:12;6.68;;;1.38;;
47113;SDS011;32867;51.556;6.832;2024-03-29T19:37:13;2.05;;;1.08;;
47113;SDS011;32867;51.556;6.832;2024-03-29T19:42:13;5.75;;;1.20;;
47113;SDS011;32867;51.556;6.832;2024-03-29T19:47:14;2.55;;;1.27;;
47113;SDS011;32867;51.556;6.832;2024-03-29T19:52:15;1.23;;;1.00;;
47113;SDS011;32867;51.556;6.832;2024-03-29T19:57:15;1.50;;;1.00;;
47113;SDS011;32867;51.556;6.832;2024-03-29T20:02:17;1.90;;;1.10;;
47113;SDS011;32867;51.556;6.832;2024-03-29T20:07:18;2.30;;;1.17;;
47113;SDS011;32867;51.556;6.832;2024-03-29T20:12:18;4.72;;;1.10;;
47113;SDS011;32867;51.556;6.832;2024-03-29T20:17:19;3.17;;;1.27;;
47113;SDS011;32867;51.556;6.832;2024-03-29T20:22:19;2.58;;;1.10;;
47113;SDS011;32867;51.556;6.832;2024-03-29T20:27:20;2.20;;;1.02;;
47113;SDS011;32867;51.556;6.832;2024-03-29T20:32:22;1.70;;;1.10;;
47113;SDS011;32867;51.556;6.832;2024-03-29T20:37:23;2.38;;;1.20;;
47113;SDS011;32867;51.556;6.832;2024-03-29T20:42:24;2.35;;;1.13;;
47113;SDS011;32867;51.556;6.832;2024-03-29T20:47:24;1.90;;;1.10;;
47113;SDS011;32867;51.556;6.832;2024-03-29T20:52:25;1.42;;;1.10;;
47113;SDS011;32867;51.556;6.832;2024-03-29T20:57:26;2.05;;;1.10;;
47113;SDS011;32867;51.556;6.832;2024-03-29T21:02:27;1.85;;;1.00;;
47113;SDS011;32867;51.556;6.832;2024-03-29T21:07:47;2.40;;;1.23;;
47113;SDS011;32867;51.556;6.832;2024-03-29T21:12:51;2.30;;;1.30;;
47113;SDS011;32867;51.556;6.832;2024-03-29T21:17:55;2.78;;;1.20;;
47113;SDS011;32867;51.556;6.832;2024-03-29T21:22:59;2.97;;;1.33;;
47113;SDS011;32867;51.556;6.832;2024-03-29T21:28:00;2.38;;;1.20;;
47113;SDS011;32867;51.556;6.832;2024-03-29T21:33:03;1.73;;;1.10;;
47113;SDS011;32867;51.556;6.832;2024-03-29T21:38:04;2.50;;;1.17;;
47113;SDS011;32867;51.556;6.832;2024-03-29T21:43:06;1.85;;;1.23;;
47113;SDS011;32867;51.556;6.832;2024-03-29T21:48:09;2.40;;;1.30;;
47113;SDS011;32867;51.556;6.832;2024-03-29T21:53:10;2.20;;;1.20;;
47113;SDS011;32867;51.556;6.832;2024-03-29T21:58:11;1.67;;;1.20;;
47113;SDS011;32867;51.556;6.832;2024-03-29T22:03:11;2.67;;;1.33;;
47113;SDS011;32867;51.556;6.832;2024-03-29T22:08:13;2.80;;;1.15;;
47113;SDS011;32867;51.556;6.832;2024-03-29T22:13:14;2.58;;;1.23;;
47113;SDS011;32867;51.556;6.832;2024-03-29T22:18:15;2.55;;;1.20;;
47113;SDS011;32867;51.556;6.832;2024-03-29T22:23:16;2.92;;;1.33;;
47113;SDS011;32867;51.556;6.832;2024-03-29T22:28:16;2.67;;;1.55;;
47113;SDS011;32867;51.556;6.832;2024-03-29T22:33:17;2.60;;;1.45;;
47113;SDS011;32867;51.556;6.832;2024-03-29T22:38:18;3.22;;;1.38;;
47113;SDS011;32867;51.556;6.832;2024-03-29T22:43:18;3.35;;;1.50;;
47113;SDS011;32867;51.556;6.832;2024-03-29T22:48:19;2.53;;;1.50;;
47113;SDS011;32867;51.556;6.832;2024-03-29T22:53:20;3.05;;;1.50;;
47113;SDS011;32867;51.556;6.832;2024-03-29T22:58:21;2.80;;;1.58;;
47113;SDS011;32867;51.556;6.832;2024-03-29T23:03:22;2.35;;;1.35;;
47113;SDS011;32867;51.556;6.832;2024-03-29T23:08:22;2.90;;;1.52;;
47113;SDS011;32867;51.556;6.832;2024-03-29T23:13:23;3.60;;;1.60;;
47113;SDS011;32867;51.556;6.832;2024-03-29T23:18:24;2.47;;;1.58;;
47113;SDS011;32867;51.556;6.832;2024-03-29T23:23:24;3.58;;;1.80;;
47113;SDS011;32867;51.556;6.832;2024-03-29T23:28:25;2.75;;;1.58;;
47113;SDS011;32867;51.556;6.832;2024-03-29T23:33:26;2.58;;;1.48;;
47113;SDS011;32867;51.556;6.832;2024-03-29T23:38:27;2.38;;;1.40;;
47113;SDS011;32867;51.556;6.832;2024-03-29T23:43:27;2.90;;;1.70;;
47113;SDS011;32867;51.556;6.832;2024-03-29T23:48:28;4.50;;;1.50;;
47113;SDS011;32867;51.556;6.832;2024-03-29T23:53:29;2.22;;;1.40;;
47113;SDS011;32867;51.556;6.832;2024-03-29T23:58:31;2.38;;;1.42;;
